createdAt,value
2022-10-19T00:02:28.204Z,2.65
2022-10-19T00:05:29.819Z,2.85
2022-10-19T00:08:31.458Z,3.05
2022-10-19T00:11:34.398Z,2.50
2022-10-19T00:14:35.953Z,2.72
2022-10-19T00:17:37.634Z,2.58
2022-10-19T00:20:39.211Z,2.25
2022-10-19T00:23:41.216Z,2.60
2022-10-19T00:26:43.161Z,2.47
2022-10-19T00:29:44.719Z,2.72
2022-10-19T00:32:46.387Z,2.90
2022-10-19T00:35:52.580Z,3.00
2022-10-19T00:38:56.068Z,2.42
2022-10-19T00:41:57.785Z,2.47
2022-10-19T00:45:05.360Z,2.70
2022-10-19T00:48:08.514Z,3.13
2022-10-19T00:51:10.199Z,2.60
2022-10-19T00:54:12.277Z,2.63
2022-10-19T00:57:14.479Z,2.38
2022-10-19T01:00:16.180Z,2.30
2022-10-19T01:03:18.253Z,2.67
2022-10-19T01:06:20.619Z,2.22
2022-10-19T01:09:22.484Z,2.67
2022-10-19T01:12:45.263Z,2.45
2022-10-19T01:16:03.048Z,2.42
2022-10-19T01:19:19.657Z,2.50
2022-10-19T01:22:21.218Z,2.67
2022-10-19T01:25:31.754Z,2.85
2022-10-19T01:28:52.309Z,2.65
2022-10-19T01:32:02.686Z,2.35
2022-10-19T01:35:24.681Z,2.85
2022-10-19T01:38:39.090Z,2.85
2022-10-19T01:41:57.939Z,2.55
2022-10-19T01:45:07.108Z,3.10
2022-10-19T01:48:32.106Z,2.95
2022-10-19T01:51:38.665Z,2.88
2022-10-19T01:54:44.946Z,3.13
2022-10-19T02:00:53.211Z,2.90
2022-10-19T02:03:56.055Z,3.00
2022-10-19T02:06:58.865Z,2.63
2022-10-19T02:10:01.138Z,2.70
2022-10-19T02:13:03.529Z,2.58
2022-10-19T02:16:13.636Z,2.95
2022-10-19T02:19:16.867Z,3.03
2022-10-19T02:22:18.492Z,3.13
2022-10-19T02:25:20.530Z,3.00
2022-10-19T02:31:26.370Z,3.03
2022-10-19T02:34:28.270Z,3.00
2022-10-19T02:37:29.997Z,3.40
2022-10-19T02:40:37.997Z,3.50
2022-10-19T02:43:42.803Z,3.30
2022-10-19T02:46:49.814Z,3.17
2022-10-19T02:49:52.189Z,3.10
2022-10-19T02:52:53.782Z,3.28
2022-10-19T02:55:55.432Z,2.90
2022-10-19T02:58:57.067Z,3.13
2022-10-19T03:01:58.728Z,3.22
2022-10-19T03:05:00.417Z,3.15
2022-10-19T03:08:02.041Z,3.10
2022-10-19T03:11:03.860Z,3.20
2022-10-19T03:14:05.458Z,3.70
2022-10-19T03:17:07.231Z,4.00
2022-10-19T03:20:10.222Z,3.70
2022-10-19T03:23:11.787Z,3.60
2022-10-19T03:26:15.641Z,3.33
2022-10-19T03:29:17.407Z,3.30
2022-10-19T03:32:19.072Z,3.63
2022-10-19T03:35:20.667Z,3.30
2022-10-19T03:38:22.238Z,3.20
2022-10-19T03:41:26.270Z,3.28
2022-10-19T03:44:27.841Z,3.47
2022-10-19T03:47:29.486Z,3.50
2022-10-19T03:50:31.166Z,2.92
2022-10-19T03:53:33.442Z,3.03
2022-10-19T03:56:36.363Z,3.38
2022-10-19T03:59:38.194Z,3.00
2022-10-19T04:02:39.792Z,3.55
2022-10-19T04:05:41.433Z,3.60
2022-10-19T04:08:43.722Z,3.72
2022-10-19T04:11:45.476Z,3.88
2022-10-19T04:14:57.017Z,5.63
2022-10-19T04:17:59.129Z,3.95
2022-10-19T04:21:03.267Z,4.32
2022-10-19T04:24:09.334Z,3.30
2022-10-19T04:27:10.967Z,3.53
2022-10-19T04:30:12.602Z,3.47
2022-10-19T04:33:14.249Z,3.58
2022-10-19T04:36:16.176Z,5.40
2022-10-19T04:39:20.233Z,4.82
2022-10-19T04:42:21.895Z,5.65
2022-10-19T04:45:23.599Z,4.78
2022-10-19T04:48:25.160Z,4.55
2022-10-19T04:51:27.750Z,5.28
2022-10-19T04:54:29.329Z,5.60
2022-10-19T04:57:31.278Z,6.18
2022-10-19T05:00:33.350Z,5.22
2022-10-19T05:03:34.994Z,5.05
2022-10-19T05:06:36.645Z,4.72
2022-10-19T05:09:40.483Z,3.85
2022-10-19T05:12:42.123Z,4.78
2022-10-19T05:15:43.837Z,5.63
2022-10-19T05:18:50.275Z,5.47
2022-10-19T05:24:55.934Z,5.75
2022-10-19T05:27:59.739Z,7.93
2022-10-19T05:31:06.705Z,5.25
2022-10-19T05:37:16.473Z,4.10
2022-10-19T05:40:18.041Z,3.63
2022-10-19T05:43:19.572Z,3.53
2022-10-19T05:46:21.317Z,3.47
2022-10-19T05:49:23.283Z,3.25
2022-10-19T05:52:24.877Z,3.40
2022-10-19T05:55:26.482Z,3.30
2022-10-19T05:58:28.049Z,3.53
2022-10-19T06:01:30.969Z,3.83
2022-10-19T06:04:33.743Z,5.50
2022-10-19T06:07:35.741Z,6.22
2022-10-19T06:10:37.505Z,6.82
2022-10-19T06:13:40.847Z,7.32
2022-10-19T06:16:42.841Z,6.30
2022-10-19T06:19:44.400Z,8.18
2022-10-19T06:22:46.005Z,7.38
2022-10-19T06:25:47.646Z,6.07
2022-10-19T06:28:50.449Z,5.80
2022-10-19T06:31:54.137Z,5.07
2022-10-19T06:34:56.652Z,4.70
2022-10-19T06:37:58.378Z,4.32
2022-10-19T06:41:00.730Z,5.40
2022-10-19T06:44:02.462Z,4.95
2022-10-19T06:47:04.153Z,4.63
2022-10-19T06:50:07.002Z,3.85
2022-10-19T06:53:08.678Z,3.60
2022-10-19T06:56:10.691Z,3.63
2022-10-19T06:59:14.728Z,3.22
2022-10-19T07:02:16.839Z,3.00
2022-10-19T07:05:18.465Z,3.85
2022-10-19T07:08:20.106Z,4.20
2022-10-19T07:11:22.687Z,3.42
2022-10-19T07:14:24.834Z,3.30
2022-10-19T07:17:26.544Z,3.70
2022-10-19T07:20:28.128Z,4.43
2022-10-19T07:23:31.571Z,3.95
2022-10-19T07:26:33.806Z,4.28
2022-10-19T07:29:35.541Z,4.30
2022-10-19T07:32:37.160Z,3.97
2022-10-19T07:35:38.806Z,4.15
2022-10-19T07:38:41.042Z,3.92
2022-10-19T07:41:43.599Z,3.97
2022-10-19T07:44:45.430Z,3.72
2022-10-19T07:47:46.978Z,3.88
2022-10-19T07:50:49.019Z,3.67
2022-10-19T07:53:50.935Z,3.55
2022-10-19T07:56:52.506Z,3.53
2022-10-19T07:59:54.062Z,5.45
2022-10-19T08:03:28.075Z,7.90
2022-10-19T08:06:21.438Z,12.43
2022-10-19T08:09:47.365Z,11.80
2022-10-19T08:12:44.610Z,10.63
2022-10-19T08:15:46.355Z,9.98
2022-10-19T08:18:48.014Z,9.70
2022-10-19T08:21:49.905Z,8.00
2022-10-19T08:24:51.828Z,6.68
2022-10-19T08:27:53.389Z,5.93
2022-10-19T08:30:58.866Z,6.78
2022-10-19T08:34:00.491Z,5.13
2022-10-19T08:37:10.194Z,5.10
2022-10-19T08:40:25.378Z,5.95
2022-10-19T08:43:38.604Z,5.57
2022-10-19T08:47:13.872Z,5.90
2022-10-19T08:50:25.871Z,5.47
2022-10-19T08:53:38.826Z,5.72
2022-10-19T08:56:55.176Z,5.55
2022-10-19T09:00:15.713Z,5.13
2022-10-19T09:03:37.863Z,5.18
2022-10-19T09:07:10.265Z,5.30
2022-10-19T09:10:14.912Z,4.97
2022-10-19T09:13:41.286Z,4.90
2022-10-19T09:16:48.812Z,4.95
2022-10-19T09:19:50.650Z,4.68
2022-10-19T09:23:01.941Z,5.70
2022-10-19T09:26:05.830Z,5.32
2022-10-19T09:29:21.581Z,4.95
2022-10-19T09:32:28.497Z,5.17
2022-10-19T09:35:44.421Z,4.80
2022-10-19T09:38:46.105Z,5.10
2022-10-19T09:41:52.106Z,4.88
2022-10-19T09:44:55.075Z,5.22
2022-10-19T09:48:04.598Z,4.93
2022-10-19T09:51:14.645Z,5.33
2022-10-19T09:54:32.359Z,5.03
2022-10-19T09:57:45.927Z,5.50
2022-10-19T10:00:54.933Z,5.40
2022-10-19T10:04:08.758Z,4.95
2022-10-19T10:07:16.923Z,5.45
2022-10-19T10:10:18.581Z,4.97
2022-10-19T10:13:23.885Z,4.93
2022-10-19T10:16:30.498Z,5.47
2022-10-19T10:19:33.738Z,5.30
2022-10-19T10:22:37.157Z,5.70
2022-10-19T10:25:44.360Z,5.03
2022-10-19T10:28:51.416Z,5.68
2022-10-19T10:32:04.326Z,6.10
2022-10-19T10:35:31.690Z,5.40
2022-10-19T10:38:45.136Z,5.38
2022-10-19T10:41:49.003Z,5.18
2022-10-19T10:44:53.167Z,5.50
2022-10-19T10:47:55.179Z,5.35
2022-10-19T10:50:58.199Z,4.85
2022-10-19T10:54:32.824Z,5.15
2022-10-19T10:57:40.660Z,4.90
2022-10-19T11:00:43.456Z,5.13
2022-10-19T11:03:50.925Z,5.68
2022-10-19T11:06:59.225Z,5.45
2022-10-19T11:10:09.910Z,5.78
2022-10-19T11:13:37.948Z,5.95
2022-10-19T11:16:45.891Z,5.20
2022-10-19T11:19:50.254Z,5.72
2022-10-19T11:23:13.690Z,6.05
2022-10-19T11:26:27.452Z,6.13
2022-10-19T11:30:01.648Z,5.95
2022-10-19T11:33:20.430Z,5.88
2022-10-19T11:37:07.253Z,6.25
2022-10-19T11:41:19.031Z,6.60
2022-10-19T11:44:35.170Z,5.65
2022-10-19T11:47:59.737Z,7.18
2022-10-19T11:51:40.652Z,6.28
2022-10-19T11:55:04.228Z,6.53
2022-10-19T11:58:43.022Z,5.75
2022-10-19T12:02:03.257Z,5.53
2022-10-19T12:05:13.558Z,5.18
2022-10-19T12:08:52.527Z,6.00
2022-10-19T12:12:23.824Z,5.45
2022-10-19T12:15:33.593Z,5.85
2022-10-19T12:19:04.225Z,6.05
2022-10-19T12:22:12.617Z,6.30
2022-10-19T12:25:16.702Z,7.50
2022-10-19T12:28:24.690Z,6.82
2022-10-19T12:31:28.354Z,6.18
2022-10-19T12:34:40.672Z,5.63
2022-10-19T12:37:53.641Z,6.40
2022-10-19T12:41:06.156Z,6.35
2022-10-19T12:44:22.137Z,6.15
2022-10-19T12:47:25.071Z,7.10
2022-10-19T12:50:48.811Z,7.00
2022-10-19T12:53:50.594Z,6.68
2022-10-19T12:56:54.592Z,5.88
2022-10-19T13:00:20.717Z,5.45
2022-10-19T13:03:25.186Z,5.55
2022-10-19T13:06:35.584Z,5.60
2022-10-19T13:09:42.626Z,5.30
2022-10-19T13:12:47.102Z,4.80
2022-10-19T13:15:51.439Z,5.35
2022-10-19T13:19:14.133Z,5.38
2022-10-19T13:22:27.899Z,4.78
2022-10-19T13:25:34.097Z,4.50
2022-10-19T13:28:37.600Z,4.60
2022-10-19T13:31:39.654Z,4.13
2022-10-19T13:34:41.379Z,4.30
2022-10-19T13:37:43.712Z,4.07
2022-10-19T13:44:59.624Z,4.32
2022-10-19T13:48:18.795Z,4.40
2022-10-19T13:51:42.174Z,3.88
2022-10-19T13:55:17.838Z,4.35
2022-10-19T13:58:40.342Z,3.88
2022-10-19T14:01:59.792Z,3.88
2022-10-19T14:05:35.855Z,3.78
2022-10-19T14:08:55.954Z,3.70
2022-10-19T14:12:31.196Z,4.25
2022-10-19T14:15:34.909Z,4.00
2022-10-19T14:18:37.546Z,3.47
2022-10-19T14:21:39.211Z,3.58
2022-10-19T14:24:40.817Z,3.42
2022-10-19T14:27:43.001Z,2.83
2022-10-19T14:30:44.743Z,2.78
2022-10-19T14:33:50.138Z,2.70
2022-10-19T14:36:51.894Z,2.58
2022-10-19T14:40:04.235Z,3.80
2022-10-19T14:43:26.781Z,2.65
2022-10-19T14:46:33.839Z,2.60
2022-10-19T14:49:35.601Z,2.40
2022-10-19T14:52:39.709Z,2.60
2022-10-19T14:55:42.200Z,2.80
2022-10-19T14:59:29.148Z,3.05
2022-10-19T15:02:44.738Z,3.10
2022-10-19T15:05:49.250Z,3.13
2022-10-19T15:08:57.195Z,3.15
2022-10-19T15:12:10.535Z,3.25
2022-10-19T15:15:22.178Z,3.65
2022-10-19T15:18:47.540Z,3.88
2022-10-19T15:21:47.824Z,3.67
2022-10-19T15:25:07.825Z,4.40
2022-10-19T15:28:20.946Z,3.78
2022-10-19T15:31:28.535Z,3.10
2022-10-19T15:34:30.739Z,3.40
2022-10-19T15:37:32.400Z,3.63
2022-10-19T15:40:40.683Z,3.75
2022-10-19T15:43:58.868Z,3.25
2022-10-19T15:47:12.339Z,2.92
2022-10-19T15:50:32.195Z,2.80
2022-10-19T15:53:33.873Z,2.92
2022-10-19T15:56:39.024Z,2.95
2022-10-19T15:59:40.668Z,2.57
2022-10-19T16:02:42.442Z,2.80
2022-10-19T16:05:44.156Z,3.30
2022-10-19T16:08:46.582Z,3.33
2022-10-19T16:11:48.721Z,3.20
2022-10-19T16:14:50.679Z,3.17
2022-10-19T16:17:58.782Z,2.60
2022-10-19T16:21:00.844Z,2.65
2022-10-19T16:24:02.879Z,2.72
2022-10-19T16:27:04.957Z,2.58
2022-10-19T16:30:07.462Z,2.65
2022-10-19T16:33:09.065Z,2.80
2022-10-19T16:36:10.994Z,2.72
2022-10-19T16:39:12.621Z,2.50
2022-10-19T16:42:14.516Z,2.55
2022-10-19T16:45:16.982Z,2.25
2022-10-19T16:48:23.205Z,2.35
2022-10-19T16:51:30.142Z,2.60
2022-10-19T16:54:32.866Z,2.72
2022-10-19T16:57:34.537Z,2.90
2022-10-19T17:00:48.313Z,2.55
2022-10-19T17:03:55.024Z,2.50
2022-10-19T17:06:57.687Z,2.63
2022-10-19T17:09:59.430Z,2.90
2022-10-19T17:13:01.154Z,2.72
2022-10-19T17:16:04.032Z,2.60
2022-10-19T17:19:07.093Z,2.47
2022-10-19T17:22:08.708Z,2.70
2022-10-19T17:25:10.301Z,2.67
2022-10-19T17:28:11.908Z,2.65
2022-10-19T17:31:14.118Z,2.50
2022-10-19T17:34:16.124Z,2.40
2022-10-19T17:37:17.732Z,2.55
2022-10-19T17:40:19.336Z,2.50
2022-10-19T17:43:20.944Z,2.50
2022-10-19T17:46:28.943Z,2.50
2022-10-19T17:49:30.567Z,2.60
2022-10-19T17:52:32.187Z,2.97
2022-10-19T17:55:36.807Z,2.42
2022-10-19T17:58:39.921Z,2.75
2022-10-19T18:01:42.201Z,2.67
2022-10-19T18:04:43.766Z,2.92
2022-10-19T18:07:45.606Z,3.15
2022-10-19T18:10:47.200Z,2.65
2022-10-19T18:13:49.643Z,3.05
2022-10-19T18:16:52.081Z,2.83
2022-10-19T18:19:53.813Z,3.05
2022-10-19T18:22:55.436Z,2.83
2022-10-19T18:26:04.886Z,3.13
2022-10-19T18:29:16.743Z,3.08
2022-10-19T18:32:18.330Z,2.85
2022-10-19T18:35:19.950Z,2.38
2022-10-19T18:38:23.671Z,2.53
2022-10-19T18:41:26.374Z,2.67
2022-10-19T18:44:29.558Z,3.03
2022-10-19T18:50:35.721Z,2.80
2022-10-19T18:53:37.554Z,2.75
2022-10-19T18:56:39.178Z,3.00
2022-10-19T18:59:40.789Z,2.55
2022-10-19T19:02:47.059Z,3.85
2022-10-19T19:05:49.080Z,2.88
2022-10-19T19:08:51.468Z,2.80
2022-10-19T19:11:54.423Z,3.17
2022-10-19T19:14:56.026Z,3.10
2022-10-19T19:17:57.632Z,3.33
2022-10-19T19:20:59.313Z,2.80
2022-10-19T19:24:02.729Z,3.00
2022-10-19T19:27:04.348Z,2.55
2022-10-19T19:30:06.548Z,3.00
2022-10-19T19:33:08.277Z,2.90
2022-10-19T19:36:11.692Z,2.80
2022-10-19T19:39:19.426Z,3.50
2022-10-19T19:42:23.310Z,3.50
2022-10-19T19:45:28.617Z,3.38
2022-10-19T19:48:30.463Z,5.15
2022-10-19T19:51:32.629Z,6.18
2022-10-19T19:54:34.252Z,5.47
2022-10-19T19:57:36.101Z,4.63
2022-10-19T20:00:39.503Z,4.25
2022-10-19T20:03:42.147Z,5.95
2022-10-19T20:06:44.619Z,4.90
2022-10-19T20:09:46.330Z,5.93
2022-10-19T20:12:48.466Z,6.45
2022-10-19T20:15:50.176Z,6.03
2022-10-19T20:18:55.588Z,6.10
2022-10-19T20:21:58.229Z,5.93
2022-10-19T20:24:59.821Z,6.93
2022-10-19T20:28:01.472Z,7.28
2022-10-19T20:31:06.130Z,6.60
2022-10-19T20:34:14.071Z,6.50
2022-10-19T20:37:15.947Z,6.03
2022-10-19T20:40:17.956Z,7.85
2022-10-19T20:43:19.573Z,7.03
2022-10-19T20:46:27.786Z,7.13
2022-10-19T20:49:29.375Z,5.97
2022-10-19T20:52:30.959Z,6.30
2022-10-19T20:55:33.359Z,6.18
2022-10-19T20:58:35.490Z,5.15
2022-10-19T21:01:38.665Z,5.30
2022-10-19T21:04:40.298Z,5.15
2022-10-19T21:07:41.898Z,5.00
2022-10-19T21:10:43.541Z,5.38
2022-10-19T21:13:46.057Z,3.90
2022-10-19T21:16:47.863Z,3.55
2022-10-19T21:19:49.603Z,4.13
2022-10-19T21:22:51.240Z,4.50
2022-10-19T21:25:54.603Z,3.95
2022-10-19T21:28:56.575Z,3.45
2022-10-19T21:31:58.245Z,4.15
2022-10-19T21:34:59.893Z,3.55
2022-10-19T21:38:01.506Z,3.53
2022-10-19T21:41:08.799Z,3.78
2022-10-19T21:44:10.790Z,3.63
2022-10-19T21:47:12.353Z,3.85
2022-10-19T21:50:14.039Z,3.45
2022-10-19T21:53:19.976Z,3.20
2022-10-19T21:56:21.747Z,4.03
2022-10-19T21:59:23.739Z,3.70
2022-10-19T22:02:25.321Z,3.47
2022-10-19T22:05:26.932Z,4.22
2022-10-19T22:08:30.161Z,4.63
2022-10-19T22:11:31.955Z,6.75
2022-10-19T22:14:33.581Z,6.07
2022-10-19T22:17:35.240Z,6.63
2022-10-19T22:20:38.720Z,4.47
2022-10-19T22:23:41.065Z,5.55
2022-10-19T22:26:47.371Z,6.78
2022-10-19T22:32:52.442Z,5.13
2022-10-19T22:35:59.392Z,5.45
2022-10-19T22:39:01.188Z,4.88
2022-10-19T22:42:05.456Z,4.60
2022-10-19T22:45:07.672Z,4.70
2022-10-19T22:48:09.321Z,5.53
2022-10-19T22:51:10.888Z,4.40
2022-10-19T22:54:12.922Z,5.03
2022-10-19T22:57:14.535Z,4.15
2022-10-19T23:00:16.218Z,3.95
2022-10-19T23:03:17.756Z,4.28
2022-10-19T23:06:19.332Z,4.60
2022-10-19T23:09:20.994Z,4.00
2022-10-19T23:12:22.633Z,4.22
2022-10-19T23:15:24.210Z,4.22
2022-10-19T23:18:25.881Z,4.00
2022-10-19T23:21:27.524Z,3.92
2022-10-19T23:24:29.124Z,3.58
2022-10-19T23:27:30.774Z,4.40
2022-10-19T23:30:32.350Z,4.15
2022-10-19T23:33:34.171Z,4.30
2022-10-19T23:36:35.801Z,4.30
2022-10-19T23:39:37.409Z,4.85
2022-10-19T23:42:39.036Z,4.57
2022-10-19T23:45:40.648Z,4.72
2022-10-19T23:48:42.366Z,4.50
2022-10-19T23:51:44.045Z,4.20
2022-10-19T23:54:45.636Z,4.07
2022-10-19T23:57:47.229Z,4.68
